sensor_id;sensor_type;location;lat;lon;timestamp;P1;durP1;ratioP1;P2;durP2;ratioP2
21802;SDS011;18591;47.080;22.214;2022-09-14T00:00:24;4.38;;;3.10;;
21802;SDS011;18591;47.080;22.214;2022-09-14T00:02:26;4.45;;;3.08;;
21802;SDS011;18591;47.080;22.214;2022-09-14T00:04:28;6.38;;;3.35;;
21802;SDS011;18591;47.080;22.214;2022-09-14T00:06:30;3.83;;;3.10;;
21802;SDS011;18591;47.080;22.214;2022-09-14T00:08:33;4.53;;;3.13;;
21802;SDS011;18591;47.080;22.214;2022-09-14T00:10:39;4.93;;;3.30;;
21802;SDS011;18591;47.080;22.214;2022-09-14T00:12:44;2.75;;;2.40;;
21802;SDS011;18591;47.080;22.214;2022-09-14T00:14:46;6.32;;;2.97;;
21802;SDS011;18591;47.080;22.214;2022-09-14T00:16:49;4.60;;;2.97;;
21802;SDS011;18591;47.080;22.214;2022-09-14T00:18:53;5.22;;;2.97;;
21802;SDS011;18591;47.080;22.214;2022-09-14T00:20:58;6.20;;;3.05;;
21802;SDS011;18591;47.080;22.214;2022-09-14T00:23:01;4.25;;;2.83;;
21802;SDS011;18591;47.080;22.214;2022-09-14T00:25:05;5.18;;;3.05;;
21802;SDS011;18591;47.080;22.214;2022-09-14T00:27:07;5.05;;;2.78;;
21802;SDS011;18591;47.080;22.214;2022-09-14T00:29:09;3.85;;;3.10;;
21802;SDS011;18591;47.080;22.214;2022-09-14T00:31:11;3.75;;;2.75;;
21802;SDS011;18591;47.080;22.214;2022-09-14T00:33:14;5.40;;;2.90;;
21802;SDS011;18591;47.080;22.214;2022-09-14T00:35:19;3.42;;;2.40;;
21802;SDS011;18591;47.080;22.214;2022-09-14T00:37:21;3.33;;;2.20;;
21802;SDS011;18591;47.080;22.214;2022-09-14T00:39:24;4.13;;;2.65;;
21802;SDS011;18591;47.080;22.214;2022-09-14T00:41:28;6.28;;;2.85;;
21802;SDS011;18591;47.080;22.214;2022-09-14T00:43:49;5.57;;;2.90;;
21802;SDS011;18591;47.080;22.214;2022-09-14T00:46:12;3.47;;;2.40;;
21802;SDS011;18591;47.080;22.214;2022-09-14T00:48:14;4.65;;;2.55;;
21802;SDS011;18591;47.080;22.214;2022-09-14T00:50:16;5.72;;;3.10;;
21802;SDS011;18591;47.080;22.214;2022-09-14T00:52:20;3.30;;;2.40;;
21802;SDS011;18591;47.080;22.214;2022-09-14T00:54:26;5.45;;;2.72;;
21802;SDS011;18591;47.080;22.214;2022-09-14T00:56:28;2.72;;;2.38;;
21802;SDS011;18591;47.080;22.214;2022-09-14T00:58:31;5.03;;;2.60;;
21802;SDS011;18591;47.080;22.214;2022-09-14T01:00:33;5.60;;;2.50;;
21802;SDS011;18591;47.080;22.214;2022-09-14T01:02:36;8.20;;;3.33;;
21802;SDS011;18591;47.080;22.214;2022-09-14T01:04:42;5.63;;;3.22;;
21802;SDS011;18591;47.080;22.214;2022-09-14T01:18:31;5.68;;;3.20;;
21802;SDS011;18591;47.080;22.214;2022-09-14T01:20:57;6.00;;;3.75;;
21802;SDS011;18591;47.080;22.214;2022-09-14T01:23:17;7.05;;;4.47;;
21802;SDS011;18591;47.080;22.214;2022-09-14T01:27:34;11.77;;;4.55;;
21802;SDS011;18591;47.080;22.214;2022-09-14T01:32:16;7.07;;;4.60;;
21802;SDS011;18591;47.080;22.214;2022-09-14T01:36:33;7.05;;;4.75;;
21802;SDS011;18591;47.080;22.214;2022-09-14T01:38:41;7.82;;;3.92;;
21802;SDS011;18591;47.080;22.214;2022-09-14T01:40:48;8.05;;;4.82;;
21802;SDS011;18591;47.080;22.214;2022-09-14T01:42:57;6.00;;;4.03;;
21802;SDS011;18591;47.080;22.214;2022-09-14T01:45:07;6.65;;;4.00;;
21802;SDS011;18591;47.080;22.214;2022-09-14T01:47:15;5.57;;;3.45;;
21802;SDS011;18591;47.080;22.214;2022-09-14T01:49:25;9.52;;;4.25;;
21802;SDS011;18591;47.080;22.214;2022-09-14T01:51:35;5.28;;;3.47;;
21802;SDS011;18591;47.080;22.214;2022-09-14T01:53:50;4.55;;;3.40;;
21802;SDS011;18591;47.080;22.214;2022-09-14T01:56:06;7.55;;;4.10;;
21802;SDS011;18591;47.080;22.214;2022-09-14T01:58:11;5.65;;;4.55;;
21802;SDS011;18591;47.080;22.214;2022-09-14T02:00:19;6.50;;;4.13;;
21802;SDS011;18591;47.080;22.214;2022-09-14T02:02:27;7.93;;;4.40;;
21802;SDS011;18591;47.080;22.214;2022-09-14T02:07:07;8.45;;;4.70;;
21802;SDS011;18591;47.080;22.214;2022-09-14T02:09:11;8.60;;;5.00;;
21802;SDS011;18591;47.080;22.214;2022-09-14T02:11:17;7.03;;;4.50;;
21802;SDS011;18591;47.080;22.214;2022-09-14T02:13:19;7.57;;;4.90;;
21802;SDS011;18591;47.080;22.214;2022-09-14T02:15:22;7.65;;;4.78;;
21802;SDS011;18591;47.080;22.214;2022-09-14T02:17:27;7.63;;;4.30;;
21802;SDS011;18591;47.080;22.214;2022-09-14T02:19:30;6.93;;;5.05;;
21802;SDS011;18591;47.080;22.214;2022-09-14T02:21:38;8.93;;;5.35;;
21802;SDS011;18591;47.080;22.214;2022-09-14T02:23:41;8.38;;;5.47;;
21802;SDS011;18591;47.080;22.214;2022-09-14T02:25:44;5.78;;;4.43;;
21802;SDS011;18591;47.080;22.214;2022-09-14T02:27:50;7.03;;;5.00;;
21802;SDS011;18591;47.080;22.214;2022-09-14T02:29:53;8.25;;;4.35;;
21802;SDS011;18591;47.080;22.214;2022-09-14T02:36:47;8.38;;;4.30;;
21802;SDS011;18591;47.080;22.214;2022-09-14T02:41:59;6.20;;;3.22;;
21802;SDS011;18591;47.080;22.214;2022-09-14T02:44:34;7.32;;;3.13;;
21802;SDS011;18591;47.080;22.214;2022-09-14T02:49:32;5.55;;;2.72;;
21802;SDS011;18591;47.080;22.214;2022-09-14T02:51:49;4.00;;;2.67;;
21802;SDS011;18591;47.080;22.214;2022-09-14T02:54:15;3.30;;;2.60;;
21802;SDS011;18591;47.080;22.214;2022-09-14T02:56:25;5.75;;;2.70;;
21802;SDS011;18591;47.080;22.214;2022-09-14T02:58:40;4.88;;;2.67;;
21802;SDS011;18591;47.080;22.214;2022-09-14T03:00:47;4.45;;;2.50;;
21802;SDS011;18591;47.080;22.214;2022-09-14T03:02:51;2.65;;;2.20;;
21802;SDS011;18591;47.080;22.214;2022-09-14T03:04:53;4.35;;;2.42;;
21802;SDS011;18591;47.080;22.214;2022-09-14T03:06:57;2.45;;;2.17;;
21802;SDS011;18591;47.080;22.214;2022-09-14T03:08:59;5.05;;;2.40;;
21802;SDS011;18591;47.080;22.214;2022-09-14T03:11:01;4.40;;;2.63;;
21802;SDS011;18591;47.080;22.214;2022-09-14T03:13:03;2.85;;;2.25;;
21802;SDS011;18591;47.080;22.214;2022-09-14T03:15:05;4.70;;;2.22;;
21802;SDS011;18591;47.080;22.214;2022-09-14T03:17:08;3.65;;;2.47;;
21802;SDS011;18591;47.080;22.214;2022-09-14T03:19:10;8.20;;;2.65;;
21802;SDS011;18591;47.080;22.214;2022-09-14T03:21:13;4.88;;;2.13;;
21802;SDS011;18591;47.080;22.214;2022-09-14T03:23:17;7.15;;;2.78;;
21802;SDS011;18591;47.080;22.214;2022-09-14T03:25:19;4.70;;;2.60;;
21802;SDS011;18591;47.080;22.214;2022-09-14T03:27:23;7.50;;;2.80;;
21802;SDS011;18591;47.080;22.214;2022-09-14T03:29:25;4.15;;;2.60;;
21802;SDS011;18591;47.080;22.214;2022-09-14T03:31:27;8.85;;;3.45;;
21802;SDS011;18591;47.080;22.214;2022-09-14T03:33:29;5.88;;;3.17;;
21802;SDS011;18591;47.080;22.214;2022-09-14T03:35:32;8.45;;;3.92;;
21802;SDS011;18591;47.080;22.214;2022-09-14T03:37:37;5.00;;;3.25;;
21802;SDS011;18591;47.080;22.214;2022-09-14T03:39:42;8.15;;;3.63;;
21802;SDS011;18591;47.080;22.214;2022-09-14T03:41:44;5.40;;;3.42;;
21802;SDS011;18591;47.080;22.214;2022-09-14T03:43:46;4.53;;;3.20;;
21802;SDS011;18591;47.080;22.214;2022-09-14T03:45:48;5.60;;;3.47;;
21802;SDS011;18591;47.080;22.214;2022-09-14T03:47:51;6.85;;;3.92;;
21802;SDS011;18591;47.080;22.214;2022-09-14T03:49:53;4.63;;;3.50;;
21802;SDS011;18591;47.080;22.214;2022-09-14T03:51:55;4.68;;;3.00;;
21802;SDS011;18591;47.080;22.214;2022-09-14T03:54:00;4.57;;;3.30;;
21802;SDS011;18591;47.080;22.214;2022-09-14T03:56:10;5.88;;;3.38;;
21802;SDS011;18591;47.080;22.214;2022-09-14T03:58:15;6.10;;;3.20;;
21802;SDS011;18591;47.080;22.214;2022-09-14T04:00:18;4.63;;;3.67;;
21802;SDS011;18591;47.080;22.214;2022-09-14T04:02:20;8.02;;;3.90;;
21802;SDS011;18591;47.080;22.214;2022-09-14T04:04:22;5.90;;;3.85;;
21802;SDS011;18591;47.080;22.214;2022-09-14T04:06:24;7.50;;;4.03;;
21802;SDS011;18591;47.080;22.214;2022-09-14T04:08:26;4.88;;;3.70;;
21802;SDS011;18591;47.080;22.214;2022-09-14T04:10:29;7.22;;;4.05;;
21802;SDS011;18591;47.080;22.214;2022-09-14T04:12:35;8.57;;;4.05;;
21802;SDS011;18591;47.080;22.214;2022-09-14T04:14:38;4.95;;;3.65;;
21802;SDS011;18591;47.080;22.214;2022-09-14T04:16:43;9.05;;;4.22;;
21802;SDS011;18591;47.080;22.214;2022-09-14T04:18:46;9.88;;;5.35;;
21802;SDS011;18591;47.080;22.214;2022-09-14T04:20:59;10.32;;;5.28;;
21802;SDS011;18591;47.080;22.214;2022-09-14T04:23:10;6.18;;;4.03;;
21802;SDS011;18591;47.080;22.214;2022-09-14T04:25:13;7.70;;;4.45;;
21802;SDS011;18591;47.080;22.214;2022-09-14T04:27:15;9.45;;;4.28;;
21802;SDS011;18591;47.080;22.214;2022-09-14T04:29:20;11.20;;;4.93;;
21802;SDS011;18591;47.080;22.214;2022-09-14T04:31:23;11.55;;;5.88;;
21802;SDS011;18591;47.080;22.214;2022-09-14T04:33:30;9.02;;;5.07;;
21802;SDS011;18591;47.080;22.214;2022-09-14T04:35:37;8.43;;;4.50;;
21802;SDS011;18591;47.080;22.214;2022-09-14T04:37:39;7.13;;;4.35;;
21802;SDS011;18591;47.080;22.214;2022-09-14T04:39:42;5.43;;;4.20;;
21802;SDS011;18591;47.080;22.214;2022-09-14T04:41:44;6.03;;;4.55;;
21802;SDS011;18591;47.080;22.214;2022-09-14T04:43:47;6.60;;;4.88;;
21802;SDS011;18591;47.080;22.214;2022-09-14T04:45:51;7.80;;;5.00;;
21802;SDS011;18591;47.080;22.214;2022-09-14T04:47:54;8.20;;;4.72;;
21802;SDS011;18591;47.080;22.214;2022-09-14T04:49:56;8.65;;;5.18;;
21802;SDS011;18591;47.080;22.214;2022-09-14T04:51:58;7.97;;;4.70;;
21802;SDS011;18591;47.080;22.214;2022-09-14T04:54:01;8.05;;;5.00;;
21802;SDS011;18591;47.080;22.214;2022-09-14T04:56:05;9.02;;;5.00;;
21802;SDS011;18591;47.080;22.214;2022-09-14T04:58:09;10.77;;;5.65;;
21802;SDS011;18591;47.080;22.214;2022-09-14T05:00:12;11.55;;;5.40;;
21802;SDS011;18591;47.080;22.214;2022-09-14T05:02:14;10.63;;;5.65;;
21802;SDS011;18591;47.080;22.214;2022-09-14T05:04:17;9.85;;;6.05;;
21802;SDS011;18591;47.080;22.214;2022-09-14T05:06:21;10.10;;;6.25;;
21802;SDS011;18591;47.080;22.214;2022-09-14T05:08:25;12.63;;;6.00;;
21802;SDS011;18591;47.080;22.214;2022-09-14T05:10:27;9.95;;;6.05;;
21802;SDS011;18591;47.080;22.214;2022-09-14T05:12:30;14.60;;;6.85;;
21802;SDS011;18591;47.080;22.214;2022-09-14T05:14:32;12.80;;;6.10;;
21802;SDS011;18591;47.080;22.214;2022-09-14T05:16:35;11.68;;;6.40;;
21802;SDS011;18591;47.080;22.214;2022-09-14T05:18:39;9.55;;;6.00;;
21802;SDS011;18591;47.080;22.214;2022-09-14T05:20:41;10.38;;;5.47;;
21802;SDS011;18591;47.080;22.214;2022-09-14T05:22:47;12.25;;;6.00;;
21802;SDS011;18591;47.080;22.214;2022-09-14T05:24:50;13.60;;;6.32;;
21802;SDS011;18591;47.080;22.214;2022-09-14T05:26:53;9.13;;;5.78;;
21802;SDS011;18591;47.080;22.214;2022-09-14T05:29:01;11.55;;;5.97;;
21802;SDS011;18591;47.080;22.214;2022-09-14T05:31:07;11.00;;;6.63;;
21802;SDS011;18591;47.080;22.214;2022-09-14T05:33:11;14.05;;;7.10;;
21802;SDS011;18591;47.080;22.214;2022-09-14T05:35:13;11.18;;;6.05;;
21802;SDS011;18591;47.080;22.214;2022-09-14T05:37:16;12.65;;;6.47;;
21802;SDS011;18591;47.080;22.214;2022-09-14T05:39:18;6.88;;;5.47;;
21802;SDS011;18591;47.080;22.214;2022-09-14T05:41:23;7.30;;;5.20;;
21802;SDS011;18591;47.080;22.214;2022-09-14T05:43:26;9.40;;;4.85;;
21802;SDS011;18591;47.080;22.214;2022-09-14T05:45:29;9.15;;;4.97;;
21802;SDS011;18591;47.080;22.214;2022-09-14T05:47:31;7.55;;;4.18;;
21802;SDS011;18591;47.080;22.214;2022-09-14T05:49:39;6.93;;;3.88;;
21802;SDS011;18591;47.080;22.214;2022-09-14T05:51:41;5.43;;;3.42;;
21802;SDS011;18591;47.080;22.214;2022-09-14T05:53:50;5.97;;;3.03;;
21802;SDS011;18591;47.080;22.214;2022-09-14T05:58:07;4.13;;;2.42;;
21802;SDS011;18591;47.080;22.214;2022-09-14T06:00:09;3.08;;;2.35;;
21802;SDS011;18591;47.080;22.214;2022-09-14T06:02:15;5.68;;;2.50;;
21802;SDS011;18591;47.080;22.214;2022-09-14T06:04:19;4.57;;;2.28;;
21802;SDS011;18591;47.080;22.214;2022-09-14T06:06:22;5.75;;;2.95;;
21802;SDS011;18591;47.080;22.214;2022-09-14T06:08:25;5.60;;;2.85;;
21802;SDS011;18591;47.080;22.214;2022-09-14T06:10:27;4.15;;;2.55;;
21802;SDS011;18591;47.080;22.214;2022-09-14T06:12:30;5.03;;;2.20;;
21802;SDS011;18591;47.080;22.214;2022-09-14T06:14:32;4.30;;;2.50;;
21802;SDS011;18591;47.080;22.214;2022-09-14T06:16:34;3.28;;;2.05;;
21802;SDS011;18591;47.080;22.214;2022-09-14T06:18:37;6.55;;;2.92;;
21802;SDS011;18591;47.080;22.214;2022-09-14T06:20:48;10.60;;;2.72;;
21802;SDS011;18591;47.080;22.214;2022-09-14T06:22:51;3.75;;;1.88;;
21802;SDS011;18591;47.080;22.214;2022-09-14T06:24:53;3.95;;;2.20;;
21802;SDS011;18591;47.080;22.214;2022-09-14T06:26:55;3.03;;;2.30;;
21802;SDS011;18591;47.080;22.214;2022-09-14T06:28:57;3.45;;;1.83;;
21802;SDS011;18591;47.080;22.214;2022-09-14T06:31:00;4.70;;;2.08;;
21802;SDS011;18591;47.080;22.214;2022-09-14T06:33:05;3.95;;;2.00;;
21802;SDS011;18591;47.080;22.214;2022-09-14T06:35:07;2.17;;;1.83;;
21802;SDS011;18591;47.080;22.214;2022-09-14T06:37:13;2.33;;;1.80;;
21802;SDS011;18591;47.080;22.214;2022-09-14T06:39:15;4.43;;;1.92;;
21802;SDS011;18591;47.080;22.214;2022-09-14T06:41:20;3.25;;;2.38;;
21802;SDS011;18591;47.080;22.214;2022-09-14T06:43:25;3.38;;;1.85;;
21802;SDS011;18591;47.080;22.214;2022-09-14T06:45:29;3.65;;;2.10;;
21802;SDS011;18591;47.080;22.214;2022-09-14T06:47:33;2.83;;;1.67;;
21802;SDS011;18591;47.080;22.214;2022-09-14T06:49:35;2.33;;;1.70;;
21802;SDS011;18591;47.080;22.214;2022-09-14T06:51:38;3.60;;;1.80;;
21802;SDS011;18591;47.080;22.214;2022-09-14T06:53:43;2.85;;;2.00;;
21802;SDS011;18591;47.080;22.214;2022-09-14T06:55:46;1.65;;;1.35;;
21802;SDS011;18591;47.080;22.214;2022-09-14T06:57:48;2.33;;;1.23;;
21802;SDS011;18591;47.080;22.214;2022-09-14T06:59:50;2.15;;;1.30;;
21802;SDS011;18591;47.080;22.214;2022-09-14T07:01:53;1.63;;;1.50;;
21802;SDS011;18591;47.080;22.214;2022-09-14T07:03:57;5.97;;;1.38;;
21802;SDS011;18591;47.080;22.214;2022-09-14T07:06:05;1.23;;;1.17;;
21802;SDS011;18591;47.080;22.214;2022-09-14T07:08:12;2.80;;;1.48;;
21802;SDS011;18591;47.080;22.214;2022-09-14T07:10:14;1.52;;;1.42;;
21802;SDS011;18591;47.080;22.214;2022-09-14T07:12:16;1.98;;;1.48;;
21802;SDS011;18591;47.080;22.214;2022-09-14T07:14:18;2.28;;;1.80;;
21802;SDS011;18591;47.080;22.214;2022-09-14T07:16:21;2.47;;;1.45;;
21802;SDS011;18591;47.080;22.214;2022-09-14T07:18:24;1.70;;;1.52;;
21802;SDS011;18591;47.080;22.214;2022-09-14T07:20:33;1.23;;;1.10;;
21802;SDS011;18591;47.080;22.214;2022-09-14T07:22:36;4.10;;;1.40;;
21802;SDS011;18591;47.080;22.214;2022-09-14T07:24:39;1.75;;;1.30;;
21802;SDS011;18591;47.080;22.214;2022-09-14T07:26:41;1.85;;;1.30;;
21802;SDS011;18591;47.080;22.214;2022-09-14T07:28:45;4.03;;;1.42;;
21802;SDS011;18591;47.080;22.214;2022-09-14T07:30:51;2.50;;;1.75;;
21802;SDS011;18591;47.080;22.214;2022-09-14T07:32:59;1.45;;;1.35;;
21802;SDS011;18591;47.080;22.214;2022-09-14T07:35:01;5.60;;;1.75;;
21802;SDS011;18591;47.080;22.214;2022-09-14T07:37:02;2.92;;;1.40;;
21802;SDS011;18591;47.080;22.214;2022-09-14T07:39:05;3.35;;;1.52;;
21802;SDS011;18591;47.080;22.214;2022-09-14T07:41:08;1.48;;;1.33;;
21802;SDS011;18591;47.080;22.214;2022-09-14T07:43:10;4.50;;;1.50;;
21802;SDS011;18591;47.080;22.214;2022-09-14T07:45:12;1.35;;;1.25;;
21802;SDS011;18591;47.080;22.214;2022-09-14T07:47:14;2.83;;;1.60;;
21802;SDS011;18591;47.080;22.214;2022-09-14T07:49:16;1.45;;;1.35;;
21802;SDS011;18591;47.080;22.214;2022-09-14T07:51:18;2.08;;;1.73;;
21802;SDS011;18591;47.080;22.214;2022-09-14T07:53:20;2.20;;;1.10;;
21802;SDS011;18591;47.080;22.214;2022-09-14T07:55:22;2.30;;;1.25;;
21802;SDS011;18591;47.080;22.214;2022-09-14T07:57:24;1.52;;;1.42;;
21802;SDS011;18591;47.080;22.214;2022-09-14T07:59:45;1.52;;;1.42;;
21802;SDS011;18591;47.080;22.214;2022-09-14T08:01:47;1.63;;;1.35;;
21802;SDS011;18591;47.080;22.214;2022-09-14T08:03:50;1.55;;;1.27;;
21802;SDS011;18591;47.080;22.214;2022-09-14T08:06:02;4.57;;;1.40;;
21802;SDS011;18591;47.080;22.214;2022-09-14T08:08:09;1.55;;;1.45;;
21802;SDS011;18591;47.080;22.214;2022-09-14T08:10:11;3.08;;;1.38;;
21802;SDS011;18591;47.080;22.214;2022-09-14T08:12:13;1.50;;;1.38;;
21802;SDS011;18591;47.080;22.214;2022-09-14T08:14:16;2.05;;;1.42;;
21802;SDS011;18591;47.080;22.214;2022-09-14T08:16:18;2.70;;;1.52;;
21802;SDS011;18591;47.080;22.214;2022-09-14T08:18:21;3.92;;;1.50;;
21802;SDS011;18591;47.080;22.214;2022-09-14T08:20:23;1.50;;;1.40;;
21802;SDS011;18591;47.080;22.214;2022-09-14T08:22:25;4.90;;;1.42;;
21802;SDS011;18591;47.080;22.214;2022-09-14T08:24:28;1.50;;;1.40;;
21802;SDS011;18591;47.080;22.214;2022-09-14T08:26:31;3.80;;;1.50;;
21802;SDS011;18591;47.080;22.214;2022-09-14T08:28:36;1.45;;;1.10;;
21802;SDS011;18591;47.080;22.214;2022-09-14T08:30:39;1.60;;;1.38;;
21802;SDS011;18591;47.080;22.214;2022-09-14T08:32:41;2.20;;;1.38;;
21802;SDS011;18591;47.080;22.214;2022-09-14T08:34:43;1.33;;;1.23;;
21802;SDS011;18591;47.080;22.214;2022-09-14T08:36:45;2.83;;;1.30;;
21802;SDS011;18591;47.080;22.214;2022-09-14T08:38:48;1.42;;;1.30;;
21802;SDS011;18591;47.080;22.214;2022-09-14T08:40:50;3.10;;;1.73;;
21802;SDS011;18591;47.080;22.214;2022-09-14T08:42:53;2.85;;;1.42;;
21802;SDS011;18591;47.080;22.214;2022-09-14T08:44:59;2.92;;;1.50;;
21802;SDS011;18591;47.080;22.214;2022-09-14T08:47:11;1.38;;;1.27;;
21802;SDS011;18591;47.080;22.214;2022-09-14T08:49:20;3.28;;;1.50;;
21802;SDS011;18591;47.080;22.214;2022-09-14T08:51:44;2.25;;;1.55;;
21802;SDS011;18591;47.080;22.214;2022-09-14T08:53:46;1.92;;;1.42;;
21802;SDS011;18591;47.080;22.214;2022-09-14T08:56:00;1.73;;;1.60;;
21802;SDS011;18591;47.080;22.214;2022-09-14T08:58:11;2.10;;;1.75;;
21802;SDS011;18591;47.080;22.214;2022-09-14T09:10:04;1.92;;;1.50;;
21802;SDS011;18591;47.080;22.214;2022-09-14T09:12:08;2.33;;;1.42;;
21802;SDS011;18591;47.080;22.214;2022-09-14T09:14:16;1.65;;;1.20;;
21802;SDS011;18591;47.080;22.214;2022-09-14T09:16:24;1.60;;;1.50;;
21802;SDS011;18591;47.080;22.214;2022-09-14T09:18:48;1.30;;;1.20;;
21802;SDS011;18591;47.080;22.214;2022-09-14T09:20:56;4.65;;;1.67;;
21802;SDS011;18591;47.080;22.214;2022-09-14T09:23:13;1.67;;;1.52;;
21802;SDS011;18591;47.080;22.214;2022-09-14T09:25:19;4.70;;;1.77;;
21802;SDS011;18591;47.080;22.214;2022-09-14T09:27:23;2.20;;;1.50;;
21802;SDS011;18591;47.080;22.214;2022-09-14T09:29:28;1.73;;;1.50;;
21802;SDS011;18591;47.080;22.214;2022-09-14T09:31:47;1.73;;;1.55;;
21802;SDS011;18591;47.080;22.214;2022-09-14T09:34:11;1.90;;;1.70;;
21802;SDS011;18591;47.080;22.214;2022-09-14T09:36:15;3.92;;;1.65;;
21802;SDS011;18591;47.080;22.214;2022-09-14T09:38:19;2.85;;;1.83;;
21802;SDS011;18591;47.080;22.214;2022-09-14T09:40:31;4.05;;;2.45;;
21802;SDS011;18591;47.080;22.214;2022-09-14T09:42:37;3.58;;;1.67;;
21802;SDS011;18591;47.080;22.214;2022-09-14T09:45:09;2.67;;;1.90;;
21802;SDS011;18591;47.080;22.214;2022-09-14T09:47:11;2.45;;;1.80;;
21802;SDS011;18591;47.080;22.214;2022-09-14T09:51:28;2.90;;;2.25;;
21802;SDS011;18591;47.080;22.214;2022-09-14T09:53:31;4.63;;;2.67;;
21802;SDS011;18591;47.080;22.214;2022-09-14T09:55:36;2.72;;;2.42;;
21802;SDS011;18591;47.080;22.214;2022-09-14T09:57:40;3.63;;;2.80;;
21802;SDS011;18591;47.080;22.214;2022-09-14T09:59:42;2.40;;;2.00;;
21802;SDS011;18591;47.080;22.214;2022-09-14T10:01:47;2.17;;;1.70;;
21802;SDS011;18591;47.080;22.214;2022-09-14T10:03:59;1.60;;;1.48;;
21802;SDS011;18591;47.080;22.214;2022-09-14T10:06:02;1.75;;;1.42;;
21802;SDS011;18591;47.080;22.214;2022-09-14T10:08:13;1.60;;;1.50;;
21802;SDS011;18591;47.080;22.214;2022-09-14T10:10:16;1.88;;;1.58;;
21802;SDS011;18591;47.080;22.214;2022-09-14T10:12:23;3.35;;;1.70;;
21802;SDS011;18591;47.080;22.214;2022-09-14T10:14:27;1.58;;;1.48;;
21802;SDS011;18591;47.080;22.214;2022-09-14T10:16:35;1.80;;;1.40;;
21802;SDS011;18591;47.080;22.214;2022-09-14T10:18:42;2.08;;;1.40;;
21802;SDS011;18591;47.080;22.214;2022-09-14T10:22:54;1.60;;;1.50;;
21802;SDS011;18591;47.080;22.214;2022-09-14T10:24:57;1.60;;;1.50;;
21802;SDS011;18591;47.080;22.214;2022-09-14T10:27:09;3.88;;;1.38;;
21802;SDS011;18591;47.080;22.214;2022-09-14T10:29:40;4.35;;;1.60;;
21802;SDS011;18591;47.080;22.214;2022-09-14T10:31:43;1.85;;;1.70;;
21802;SDS011;18591;47.080;22.214;2022-09-14T10:33:50;2.38;;;1.60;;
21802;SDS011;18591;47.080;22.214;2022-09-14T10:40:24;2.90;;;1.30;;
21802;SDS011;18591;47.080;22.214;2022-09-14T10:50:02;1.42;;;1.30;;
21802;SDS011;18591;47.080;22.214;2022-09-14T11:01:36;2.05;;;1.58;;
21802;SDS011;18591;47.080;22.214;2022-09-14T11:03:57;1.80;;;1.60;;
21802;SDS011;18591;47.080;22.214;2022-09-14T11:10:53;1.50;;;1.40;;
21802;SDS011;18591;47.080;22.214;2022-09-14T11:20:21;3.35;;;1.73;;
21802;SDS011;18591;47.080;22.214;2022-09-14T11:22:40;1.67;;;1.40;;
21802;SDS011;18591;47.080;22.214;2022-09-14T11:24:53;2.88;;;1.60;;
21802;SDS011;18591;47.080;22.214;2022-09-14T11:27:16;3.90;;;1.70;;
21802;SDS011;18591;47.080;22.214;2022-09-14T11:29:31;2.60;;;1.42;;
21802;SDS011;18591;47.080;22.214;2022-09-14T11:36:27;2.83;;;1.60;;
21802;SDS011;18591;47.080;22.214;2022-09-14T11:38:46;2.35;;;1.58;;
21802;SDS011;18591;47.080;22.214;2022-09-14T11:41:28;5.30;;;1.60;;
21802;SDS011;18591;47.080;22.214;2022-09-14T11:43:29;1.63;;;1.52;;
21802;SDS011;18591;47.080;22.214;2022-09-14T11:45:57;2.05;;;1.58;;
21802;SDS011;18591;47.080;22.214;2022-09-14T11:50:44;4.65;;;2.13;;
21802;SDS011;18591;47.080;22.214;2022-09-14T11:52:56;1.95;;;1.77;;
21802;SDS011;18591;47.080;22.214;2022-09-14T11:55:07;1.67;;;1.50;;
21802;SDS011;18591;47.080;22.214;2022-09-14T11:57:16;1.60;;;1.38;;
21802;SDS011;18591;47.080;22.214;2022-09-14T12:01:41;4.63;;;1.80;;
21802;SDS011;18591;47.080;22.214;2022-09-14T12:06:40;3.72;;;2.08;;
21802;SDS011;18591;47.080;22.214;2022-09-14T12:08:38;2.78;;;1.70;;
21802;SDS011;18591;47.080;22.214;2022-09-14T12:15:14;1.88;;;1.55;;
21802;SDS011;18591;47.080;22.214;2022-09-14T12:17:24;4.30;;;1.73;;
21802;SDS011;18591;47.080;22.214;2022-09-14T12:19:42;6.00;;;1.65;;
21802;SDS011;18591;47.080;22.214;2022-09-14T12:21:45;3.17;;;1.77;;
21802;SDS011;18591;47.080;22.214;2022-09-14T12:23:48;4.18;;;2.10;;
21802;SDS011;18591;47.080;22.214;2022-09-14T12:32:42;5.72;;;1.90;;
21802;SDS011;18591;47.080;22.214;2022-09-14T12:34:47;2.22;;;1.98;;
21802;SDS011;18591;47.080;22.214;2022-09-14T12:37:35;3.13;;;2.40;;
21802;SDS011;18591;47.080;22.214;2022-09-14T12:39:37;3.47;;;2.08;;
21802;SDS011;18591;47.080;22.214;2022-09-14T12:46:42;11.60;;;3.40;;
21802;SDS011;18591;47.080;22.214;2022-09-14T12:50:49;5.18;;;3.15;;
21802;SDS011;18591;47.080;22.214;2022-09-14T12:52:59;5.20;;;3.15;;
21802;SDS011;18591;47.080;22.214;2022-09-14T12:57:55;2.85;;;2.15;;
21802;SDS011;18591;47.080;22.214;2022-09-14T13:00:14;3.28;;;2.47;;
21802;SDS011;18591;47.080;22.214;2022-09-14T13:04:33;4.82;;;2.63;;
21802;SDS011;18591;47.080;22.214;2022-09-14T13:06:40;8.57;;;3.30;;
21802;SDS011;18591;47.080;22.214;2022-09-14T13:08:47;6.65;;;2.83;;
21802;SDS011;18591;47.080;22.214;2022-09-14T13:10:52;5.38;;;3.00;;
21802;SDS011;18591;47.080;22.214;2022-09-14T13:12:54;2.72;;;2.28;;
21802;SDS011;18591;47.080;22.214;2022-09-14T13:14:58;6.28;;;2.97;;
21802;SDS011;18591;47.080;22.214;2022-09-14T13:17:03;3.95;;;2.55;;
21802;SDS011;18591;47.080;22.214;2022-09-14T13:19:16;3.97;;;3.05;;
21802;SDS011;18591;47.080;22.214;2022-09-14T13:21:26;5.13;;;3.05;;
21802;SDS011;18591;47.080;22.214;2022-09-14T13:25:38;4.18;;;2.58;;
21802;SDS011;18591;47.080;22.214;2022-09-14T13:27:48;5.15;;;2.88;;
21802;SDS011;18591;47.080;22.214;2022-09-14T13:30:24;5.80;;;2.60;;
21802;SDS011;18591;47.080;22.214;2022-09-14T13:32:25;6.13;;;3.03;;
21802;SDS011;18591;47.080;22.214;2022-09-14T13:34:28;10.07;;;2.97;;
21802;SDS011;18591;47.080;22.214;2022-09-14T13:36:35;4.15;;;2.70;;
21802;SDS011;18591;47.080;22.214;2022-09-14T13:38:43;5.20;;;2.10;;
21802;SDS011;18591;47.080;22.214;2022-09-14T13:40:45;3.20;;;2.20;;
21802;SDS011;18591;47.080;22.214;2022-09-14T13:42:50;5.25;;;2.17;;
21802;SDS011;18591;47.080;22.214;2022-09-14T13:44:52;5.15;;;2.58;;
21802;SDS011;18591;47.080;22.214;2022-09-14T13:46:56;4.40;;;2.60;;
21802;SDS011;18591;47.080;22.214;2022-09-14T13:49:04;4.30;;;2.28;;
21802;SDS011;18591;47.080;22.214;2022-09-14T13:51:11;4.25;;;2.17;;
21802;SDS011;18591;47.080;22.214;2022-09-14T13:57:38;3.90;;;2.45;;
21802;SDS011;18591;47.080;22.214;2022-09-14T14:02:09;3.03;;;2.28;;
21802;SDS011;18591;47.080;22.214;2022-09-14T14:04:33;3.13;;;2.35;;
21802;SDS011;18591;47.080;22.214;2022-09-14T14:06:38;5.88;;;3.70;;
21802;SDS011;18591;47.080;22.214;2022-09-14T14:08:42;6.60;;;3.10;;
21802;SDS011;18591;47.080;22.214;2022-09-14T14:10:44;7.90;;;3.20;;
21802;SDS011;18591;47.080;22.214;2022-09-14T14:12:50;4.30;;;3.35;;
21802;SDS011;18591;47.080;22.214;2022-09-14T14:19:26;6.18;;;3.17;;
21802;SDS011;18591;47.080;22.214;2022-09-14T14:21:31;8.35;;;2.92;;
21802;SDS011;18591;47.080;22.214;2022-09-14T14:23:34;4.78;;;2.97;;
21802;SDS011;18591;47.080;22.214;2022-09-14T14:26:05;4.75;;;2.63;;
21802;SDS011;18591;47.080;22.214;2022-09-14T14:28:22;3.80;;;2.17;;
21802;SDS011;18591;47.080;22.214;2022-09-14T14:30:27;2.30;;;2.10;;
21802;SDS011;18591;47.080;22.214;2022-09-14T14:32:30;3.78;;;1.63;;
21802;SDS011;18591;47.080;22.214;2022-09-14T14:34:32;3.83;;;2.13;;
21802;SDS011;18591;47.080;22.214;2022-09-14T14:36:35;2.67;;;2.13;;
21802;SDS011;18591;47.080;22.214;2022-09-14T14:38:37;3.15;;;2.17;;